Taftsville, Vermont
Current Conditions -  °F | °C
As of 11:31 AM on Sunday 21 Dec 2014 (Local Time) from KLEB Reporting Station
Light Snow Light Snow  
Wind Chill: 26°   Ceiling: 4200
Heat Index: 26°   Visibility: 3mi
Dew Point: 22°   Wind: 0mph
Humidity: 84%   Direction: NA
Pressure: 30.31"   Gusts: NA
Location:  43.63°N, 72.47°W
Report Text: KLEB 211631Z 00000KT 3SM -SN BR BKN042 OVC050 M03/M06 A3031 RMK AO2 P0000 T10331056
Loading
Personal Weather Stations






























Interactive Weather Map New forecast layout! Learn more

10-Day Weather Forecast

Advertisements
Track Severe Weather on mobile